createdAt,value
2022-09-11T00:00:59.792Z,63.44
2022-09-11T00:03:32.606Z,63.67
2022-09-11T00:06:10.601Z,63.23
2022-09-11T00:08:43.717Z,63.24
2022-09-11T00:11:18.607Z,63.23
2022-09-11T00:13:54.262Z,62.97
2022-09-11T00:16:30.226Z,63.09
2022-09-11T00:19:06.157Z,63.21
2022-09-11T00:21:40.334Z,63.03
2022-09-11T00:24:13.244Z,63.23
2022-09-11T00:26:47.800Z,63.39
2022-09-11T00:29:20.779Z,63.55
2022-09-11T00:31:53.855Z,63.30
2022-09-11T00:34:26.387Z,63.26
2022-09-11T00:37:00.338Z,63.40
2022-09-11T00:39:34.778Z,63.66
2022-09-11T00:42:08.155Z,63.92
2022-09-11T00:45:03.139Z,63.73
2022-09-11T00:47:37.265Z,63.78
2022-09-11T00:50:13.557Z,63.74
2022-09-11T00:52:53.248Z,63.43
2022-09-11T00:55:28.784Z,63.87
2022-09-11T00:58:05.920Z,63.58
2022-09-11T01:00:40.467Z,63.84
2022-09-11T01:03:13.550Z,63.89
2022-09-11T01:05:48.286Z,63.69
2022-09-11T01:08:23.239Z,63.88
2022-09-11T01:11:12.882Z,63.92
2022-09-11T01:13:52.767Z,63.61
2022-09-11T01:16:34.750Z,64.23
2022-09-11T01:19:20.120Z,63.81
2022-09-11T01:22:08.402Z,64.14
2022-09-11T01:25:06.952Z,64.04
2022-09-11T01:27:50.282Z,63.89
2022-09-11T01:30:23.557Z,64.18
2022-09-11T01:33:08.615Z,63.80
2022-09-11T01:35:51.043Z,63.82
2022-09-11T01:38:31.672Z,63.89
2022-09-11T01:41:09.863Z,63.90
2022-09-11T01:43:51.597Z,63.97
2022-09-11T01:46:27.813Z,63.92
2022-09-11T01:49:06.670Z,64.18
2022-09-11T01:51:41.481Z,64.13
2022-09-11T01:54:18.814Z,64.30
2022-09-11T01:56:56.469Z,64.02
2022-09-11T01:59:37.046Z,63.49
2022-09-11T02:02:15.031Z,63.44
2022-09-11T02:04:53.103Z,63.28
2022-09-11T02:07:32.131Z,63.78
2022-09-11T02:10:10.396Z,63.52
2022-09-11T02:12:47.549Z,63.90
2022-09-11T02:15:25.358Z,63.32
2022-09-11T02:18:03.341Z,63.58
2022-09-11T02:20:38.483Z,64.04
2022-09-11T02:23:11.196Z,64.26
2022-09-11T02:25:44.073Z,64.17
2022-09-11T02:28:17.758Z,63.93
2022-09-11T02:30:52.000Z,64.78
2022-09-11T02:33:33.119Z,64.64
2022-09-11T02:36:20.242Z,64.98
2022-09-11T02:39:10.803Z,64.39
2022-09-11T02:41:55.276Z,64.62
2022-09-11T02:44:35.442Z,64.50
2022-09-11T02:47:20.530Z,64.62
2022-09-11T02:50:07.077Z,64.47
2022-09-11T02:52:50.170Z,64.58
2022-09-11T02:55:32.910Z,64.82
2022-09-11T02:58:10.969Z,64.83
2022-09-11T03:00:48.319Z,64.98
2022-09-11T03:03:22.415Z,64.74
2022-09-11T03:05:55.373Z,64.35
2022-09-11T03:08:31.491Z,64.61
2022-09-11T03:11:04.753Z,64.77
2022-09-11T03:13:38.090Z,65.62
2022-09-11T03:16:12.234Z,65.24
2022-09-11T03:18:46.375Z,65.02
2022-09-11T03:21:20.285Z,64.96
2022-09-11T03:23:52.971Z,64.53
2022-09-11T03:26:26.256Z,64.58
2022-09-11T03:28:59.066Z,65.56
2022-09-11T03:31:31.803Z,65.24
2022-09-11T03:34:06.708Z,64.84
2022-09-11T03:36:40.194Z,65.08
2022-09-11T03:39:13.346Z,65.16
2022-09-11T03:41:46.021Z,64.76
2022-09-11T03:44:18.967Z,65.56
2022-09-11T03:46:52.697Z,65.61
2022-09-11T03:49:26.979Z,65.84
2022-09-11T03:52:01.078Z,65.72
2022-09-11T03:54:34.389Z,65.59
2022-09-11T03:57:09.631Z,65.16
2022-09-11T03:59:44.010Z,65.53
2022-09-11T04:02:16.801Z,65.79
2022-09-11T04:04:51.071Z,64.96
2022-09-11T04:07:24.419Z,65.06
2022-09-11T04:09:57.230Z,65.68
2022-09-11T04:12:30.052Z,65.47
2022-09-11T04:15:02.846Z,65.64
2022-09-11T04:17:37.523Z,65.39
2022-09-11T04:20:11.911Z,65.96
2022-09-11T04:22:45.257Z,65.53
2022-09-11T04:25:18.888Z,64.91
2022-09-11T04:27:51.571Z,65.22
2022-09-11T04:30:24.295Z,65.26
2022-09-11T04:32:58.190Z,65.71
2022-09-11T04:35:32.742Z,66.21
2022-09-11T04:38:06.827Z,65.57
2022-09-11T04:40:41.004Z,65.41
2022-09-11T04:43:13.652Z,65.84
2022-09-11T04:45:46.476Z,65.30
2022-09-11T04:48:19.095Z,65.83
2022-09-11T04:51:02.663Z,65.47
2022-09-11T04:53:36.136Z,65.21
2022-09-11T04:56:12.338Z,66.09
2022-09-11T04:58:55.081Z,65.41
2022-09-11T05:01:32.464Z,65.75
2022-09-11T05:04:05.285Z,65.99
2022-09-11T05:06:40.062Z,65.98
2022-09-11T05:09:18.365Z,65.86
2022-09-11T05:11:52.890Z,65.78
2022-09-11T05:14:28.143Z,65.51
2022-09-11T05:17:02.293Z,65.58
2022-09-11T05:19:36.576Z,65.85
2022-09-11T05:22:10.810Z,65.84
2022-09-11T05:24:47.800Z,66.12
2022-09-11T05:27:20.588Z,65.63
2022-09-11T05:29:53.310Z,66.00
2022-09-11T05:32:26.126Z,66.12
2022-09-11T05:34:59.487Z,65.93
2022-09-11T05:37:33.711Z,66.00
2022-09-11T05:40:07.976Z,65.42
2022-09-11T05:42:40.838Z,66.07
2022-09-11T05:45:13.639Z,65.57
2022-09-11T05:47:46.630Z,65.26
2022-09-11T05:50:21.586Z,65.59
2022-09-11T05:52:56.310Z,65.43
2022-09-11T05:55:29.374Z,65.72
2022-09-11T05:58:03.007Z,65.86
2022-09-11T06:00:35.631Z,66.63
2022-09-11T06:03:10.606Z,65.37
2022-09-11T06:05:46.391Z,65.85
2022-09-11T06:08:20.429Z,66.20
2022-09-11T06:10:53.062Z,65.91
2022-09-11T06:13:26.583Z,65.21
2022-09-11T06:15:59.300Z,65.23
2022-09-11T06:18:33.886Z,65.76
2022-09-11T06:21:11.832Z,65.77
2022-09-11T06:23:57.002Z,65.68
2022-09-11T06:26:30.432Z,65.50
2022-09-11T06:29:03.107Z,65.67
2022-09-11T06:31:36.760Z,65.61
2022-09-11T06:34:09.621Z,65.74
2022-09-11T06:36:45.165Z,65.33
2022-09-11T06:39:22.816Z,65.33
2022-09-11T06:41:56.258Z,65.68
2022-09-11T06:44:35.463Z,65.01
2022-09-11T06:47:09.071Z,65.18
2022-09-11T06:49:42.403Z,64.70
2022-09-11T06:52:35.939Z,64.71
2022-09-11T06:55:37.000Z,65.13
2022-09-11T06:58:13.754Z,64.57
2022-09-11T07:00:47.637Z,64.77
2022-09-11T07:03:20.552Z,64.67
2022-09-11T07:05:56.045Z,64.56
2022-09-11T07:08:29.762Z,64.24
2022-09-11T07:11:05.569Z,66.42
2022-09-11T07:13:40.609Z,66.61
2022-09-11T07:16:15.116Z,66.14
2022-09-11T07:18:49.378Z,66.94
2022-09-11T07:21:28.527Z,66.68
2022-09-11T07:24:05.159Z,65.97
2022-09-11T07:26:46.532Z,67.17
2022-09-11T07:29:25.049Z,67.82
2022-09-11T07:31:58.577Z,68.42
2022-09-11T07:34:33.251Z,68.60
2022-09-11T07:37:10.382Z,69.28
2022-09-11T07:39:44.530Z,67.79
2022-09-11T07:42:25.529Z,66.85
2022-09-11T07:44:58.165Z,66.88
2022-09-11T07:47:34.676Z,66.69
2022-09-11T07:50:08.829Z,66.11
2022-09-11T07:52:42.513Z,66.10
2022-09-11T07:55:15.246Z,65.34
2022-09-11T07:57:52.597Z,64.54
2022-09-11T08:00:26.051Z,64.30
2022-09-11T08:03:15.277Z,65.37
2022-09-11T08:05:47.922Z,65.71
2022-09-11T08:08:21.222Z,66.20
2022-09-11T08:10:55.512Z,64.37
2022-09-11T08:13:30.112Z,64.07
2022-09-11T08:16:04.215Z,63.28
2022-09-11T08:18:37.241Z,65.54
2022-09-11T08:21:13.121Z,65.42
2022-09-11T08:23:46.641Z,65.52
2022-09-11T08:26:22.008Z,64.28
2022-09-11T08:28:59.871Z,62.42
2022-09-11T08:31:36.117Z,63.23
2022-09-11T08:34:10.793Z,64.86
2022-09-11T08:36:44.961Z,66.07
2022-09-11T08:39:18.080Z,65.04
2022-09-11T08:42:01.282Z,63.67
2022-09-11T08:44:44.046Z,63.69
2022-09-11T08:47:26.913Z,65.14
2022-09-11T08:50:06.842Z,63.65
2022-09-11T08:52:41.337Z,65.92
2022-09-11T08:55:22.847Z,64.25
2022-09-11T08:58:02.866Z,64.54
2022-09-11T09:00:46.051Z,63.26
2022-09-11T09:03:44.780Z,63.77
2022-09-11T09:06:34.047Z,64.35
2022-09-11T09:09:14.425Z,64.38
2022-09-11T09:11:55.962Z,64.22
2022-09-11T09:14:53.466Z,63.60
2022-09-11T09:17:30.295Z,61.74
2022-09-11T09:20:09.594Z,61.97
2022-09-11T09:22:49.275Z,62.40
2022-09-11T09:25:24.152Z,63.08
2022-09-11T09:28:08.754Z,63.23
2022-09-11T09:30:49.020Z,62.64
2022-09-11T09:33:31.686Z,60.13
2022-09-11T09:36:16.678Z,62.43
2022-09-11T09:38:50.296Z,62.19
2022-09-11T09:41:54.178Z,62.15
2022-09-11T09:44:54.760Z,59.26
2022-09-11T09:47:27.612Z,60.21
2022-09-11T09:50:01.607Z,59.81
2022-09-11T09:52:35.959Z,60.45
2022-09-11T09:55:16.388Z,59.98
2022-09-11T09:57:49.289Z,60.90
2022-09-11T10:00:21.957Z,60.69
2022-09-11T10:02:58.116Z,60.73
2022-09-11T10:05:35.491Z,60.52
2022-09-11T10:08:24.748Z,61.49
2022-09-11T10:10:59.203Z,60.66
2022-09-11T10:13:33.897Z,60.76
2022-09-11T10:16:20.497Z,60.70
2022-09-11T10:18:54.361Z,59.48
2022-09-11T10:21:33.335Z,56.56
2022-09-11T10:24:23.508Z,58.65
2022-09-11T10:26:58.270Z,58.66
2022-09-11T10:29:32.045Z,56.95
2022-09-11T10:32:05.304Z,58.34
2022-09-11T10:34:40.427Z,58.30
2022-09-11T10:37:26.049Z,59.46
2022-09-11T10:40:07.293Z,58.62
2022-09-11T10:42:41.405Z,57.60
2022-09-11T10:45:17.191Z,57.36
2022-09-11T10:47:49.830Z,57.41
2022-09-11T10:50:28.736Z,56.60
2022-09-11T10:53:17.335Z,55.88
2022-09-11T10:56:01.661Z,55.21
2022-09-11T10:58:38.991Z,57.68
2022-09-11T11:01:11.850Z,58.84
2022-09-11T11:03:45.067Z,58.95
2022-09-11T11:06:32.547Z,56.50
2022-09-11T11:09:28.993Z,57.42
2022-09-11T11:12:21.049Z,56.79
2022-09-11T11:15:13.672Z,56.18
2022-09-11T11:17:53.005Z,53.83
2022-09-11T11:20:34.885Z,56.01
2022-09-11T11:23:33.883Z,53.71
2022-09-11T11:26:31.607Z,54.97
2022-09-11T11:29:18.373Z,55.34
2022-09-11T11:32:09.735Z,54.78
2022-09-11T11:35:01.492Z,54.56
2022-09-11T11:37:37.400Z,54.01
2022-09-11T11:40:19.837Z,52.97
2022-09-11T11:42:58.159Z,54.83
2022-09-11T11:45:36.437Z,53.88
2022-09-11T11:48:15.617Z,54.05
2022-09-11T11:50:52.691Z,54.18
2022-09-11T11:53:28.704Z,53.30
2022-09-11T11:56:05.874Z,53.49
2022-09-11T11:58:48.152Z,53.30
2022-09-11T12:01:25.711Z,54.46
2022-09-11T12:04:05.010Z,54.29
2022-09-11T12:06:37.656Z,52.79
2022-09-11T12:09:10.886Z,53.18
2022-09-11T12:11:47.268Z,53.03
2022-09-11T12:14:28.517Z,52.70
2022-09-11T12:17:18.859Z,51.53
2022-09-11T12:20:32.317Z,48.09
2022-09-11T12:23:06.767Z,46.41
2022-09-11T12:25:53.549Z,47.07
2022-09-11T12:28:26.974Z,47.60
2022-09-11T12:31:06.540Z,46.41
2022-09-11T12:33:55.735Z,44.53
2022-09-11T12:36:44.266Z,44.17
2022-09-11T12:39:27.002Z,44.30
2022-09-11T12:42:37.103Z,45.76
2022-09-11T12:45:32.364Z,43.57
2022-09-11T12:48:12.657Z,43.64
2022-09-11T12:50:56.229Z,49.52
2022-09-11T12:53:32.352Z,48.03
2022-09-11T12:56:07.502Z,44.37
2022-09-11T12:58:41.785Z,44.97
2022-09-11T13:01:20.849Z,46.71
2022-09-11T13:03:59.372Z,49.47
2022-09-11T13:06:42.396Z,48.46
2022-09-11T13:09:22.465Z,53.16
2022-09-11T13:11:56.805Z,45.51
2022-09-11T13:14:48.143Z,46.90
2022-09-11T13:17:28.491Z,49.26
2022-09-11T13:20:23.386Z,46.40
2022-09-11T13:23:11.457Z,51.44
2022-09-11T13:25:45.017Z,47.26
2022-09-11T13:28:23.302Z,46.75
2022-09-11T13:31:02.155Z,48.64
2022-09-11T13:33:35.046Z,52.48
2022-09-11T13:36:14.116Z,50.54
2022-09-11T13:38:54.360Z,50.28
2022-09-11T13:41:30.021Z,47.73
2022-09-11T13:44:04.156Z,48.57
2022-09-11T13:46:36.837Z,46.57
2022-09-11T13:49:28.611Z,47.99
2022-09-11T13:52:05.673Z,47.00
2022-09-11T13:54:42.587Z,46.07
2022-09-11T13:57:17.856Z,49.08
2022-09-11T13:59:57.058Z,51.78
2022-09-11T14:02:40.666Z,49.61
2022-09-11T14:05:21.016Z,47.61
2022-09-11T14:08:01.129Z,51.06
2022-09-11T14:10:38.403Z,47.07
2022-09-11T14:13:18.517Z,47.41
2022-09-11T14:15:53.902Z,46.99
2022-09-11T14:18:33.084Z,47.33
2022-09-11T14:21:13.438Z,48.81
2022-09-11T14:23:52.950Z,47.64
2022-09-11T14:26:40.359Z,47.38
2022-09-11T14:29:24.815Z,47.91
2022-09-11T14:32:31.119Z,46.51
2022-09-11T14:35:06.486Z,49.01
2022-09-11T14:37:43.568Z,49.44
2022-09-11T14:40:19.385Z,47.02
2022-09-11T14:42:52.106Z,46.70
2022-09-11T14:45:26.916Z,49.13
2022-09-11T14:48:00.827Z,47.76
2022-09-11T14:50:33.636Z,49.45
2022-09-11T14:53:06.179Z,51.19
2022-09-11T14:55:40.101Z,51.06
2022-09-11T14:58:12.778Z,49.06
2022-09-11T15:00:45.358Z,51.39
2022-09-11T15:03:19.222Z,51.05
2022-09-11T15:05:56.089Z,50.87
2022-09-11T15:08:28.751Z,46.64
2022-09-11T15:11:02.751Z,48.05
2022-09-11T15:13:35.468Z,53.40
2022-09-11T15:16:09.460Z,49.44
2022-09-11T15:18:42.109Z,48.73
2022-09-11T15:21:15.142Z,52.84
2022-09-11T15:23:50.011Z,55.15
2022-09-11T15:26:24.324Z,49.57
2022-09-11T15:28:57.032Z,48.90
2022-09-11T15:31:30.035Z,49.86
2022-09-11T15:34:07.241Z,48.30
2022-09-11T15:36:41.581Z,50.83
2022-09-11T15:39:16.971Z,49.16
2022-09-11T15:41:52.074Z,49.55
2022-09-11T15:44:27.058Z,51.50
2022-09-11T15:47:00.036Z,49.47
2022-09-11T15:49:32.700Z,49.33
2022-09-11T15:52:05.476Z,49.10
2022-09-11T15:54:38.047Z,49.27
2022-09-11T15:57:12.476Z,51.32
2022-09-11T15:59:45.259Z,51.42
2022-09-11T16:02:20.431Z,52.95
2022-09-11T16:04:54.038Z,54.23
2022-09-11T16:07:26.893Z,56.22
2022-09-11T16:09:59.814Z,49.70
2022-09-11T16:12:34.730Z,54.22
2022-09-11T16:15:08.318Z,53.91
2022-09-11T16:17:40.998Z,51.65
2022-09-11T16:20:15.297Z,51.83
2022-09-11T16:22:48.414Z,49.49
2022-09-11T16:25:21.949Z,51.93
2022-09-11T16:27:59.720Z,50.87
2022-09-11T16:30:43.588Z,55.18
2022-09-11T16:33:17.758Z,55.79
2022-09-11T16:35:58.521Z,54.53
2022-09-11T16:38:31.346Z,51.02
2022-09-11T16:41:05.057Z,52.90
2022-09-11T16:43:40.744Z,53.03
2022-09-11T16:46:15.338Z,52.03
2022-09-11T16:48:53.266Z,51.36
2022-09-11T16:51:28.062Z,52.89
2022-09-11T16:54:00.923Z,53.83
2022-09-11T16:56:33.831Z,50.53
2022-09-11T16:59:07.689Z,50.63
2022-09-11T17:01:40.500Z,51.83
2022-09-11T17:04:13.015Z,52.30
2022-09-11T17:06:45.647Z,52.80
2022-09-11T17:09:18.387Z,52.55
2022-09-11T17:11:51.155Z,50.71
2022-09-11T17:14:25.350Z,53.67
2022-09-11T17:16:58.139Z,51.39
2022-09-11T17:19:30.820Z,51.19
2022-09-11T17:22:03.845Z,53.32
2022-09-11T17:24:37.616Z,51.66
2022-09-11T17:27:10.256Z,52.00
2022-09-11T17:29:44.930Z,51.85
2022-09-11T17:32:29.203Z,50.92
2022-09-11T17:35:02.319Z,50.77
2022-09-11T17:37:34.805Z,50.94
2022-09-11T17:40:08.949Z,54.22
2022-09-11T17:42:42.594Z,51.33
2022-09-11T17:45:16.731Z,51.34
2022-09-11T17:47:49.501Z,51.79
2022-09-11T17:50:22.368Z,51.60
2022-09-11T17:52:55.093Z,51.86
2022-09-11T17:55:29.499Z,51.88
2022-09-11T17:58:02.220Z,52.99
2022-09-11T18:00:36.316Z,52.92
2022-09-11T18:03:09.082Z,52.05
2022-09-11T18:05:42.698Z,51.90
2022-09-11T18:08:16.300Z,52.53
2022-09-11T18:10:52.792Z,52.99
2022-09-11T18:13:25.429Z,52.69
2022-09-11T18:15:59.647Z,53.33
2022-09-11T18:18:33.428Z,52.45
2022-09-11T18:21:07.038Z,53.28
2022-09-11T18:23:42.491Z,52.63
2022-09-11T18:26:23.983Z,52.65
2022-09-11T18:29:00.031Z,53.23
2022-09-11T18:31:39.927Z,53.23
2022-09-11T18:34:14.093Z,53.84
2022-09-11T18:36:46.874Z,52.89
2022-09-11T18:39:21.127Z,52.91
2022-09-11T18:41:53.945Z,53.97
2022-09-11T18:44:26.765Z,53.84
2022-09-11T18:47:01.256Z,53.94
2022-09-11T18:49:34.758Z,54.32
2022-09-11T18:52:08.766Z,55.04
2022-09-11T18:54:41.527Z,53.64
2022-09-11T18:57:14.192Z,53.52
2022-09-11T18:59:46.900Z,54.67
2022-09-11T19:02:20.959Z,54.69
2022-09-11T19:04:53.735Z,54.70
2022-09-11T19:07:26.465Z,54.66
2022-09-11T19:10:00.340Z,54.63
2022-09-11T19:12:33.337Z,54.43
2022-09-11T19:15:07.143Z,54.87
2022-09-11T19:17:42.059Z,55.20
2022-09-11T19:20:14.921Z,56.11
2022-09-11T19:22:47.828Z,55.49
2022-09-11T19:25:20.414Z,55.25
2022-09-11T19:27:53.345Z,55.38
2022-09-11T19:30:26.012Z,55.31
2022-09-11T19:33:00.505Z,55.94
2022-09-11T19:35:33.168Z,56.47
2022-09-11T19:38:05.823Z,57.81
2022-09-11T19:40:39.559Z,57.76
2022-09-11T19:43:12.781Z,58.28
2022-09-11T19:45:45.789Z,55.69
2022-09-11T19:48:19.726Z,58.62
2022-09-11T19:50:52.447Z,58.08
2022-09-11T19:53:25.192Z,58.16
2022-09-11T19:56:00.290Z,58.77
2022-09-11T19:58:33.593Z,58.01
2022-09-11T20:01:08.890Z,58.67
2022-09-11T20:03:45.223Z,58.43
2022-09-11T20:06:20.572Z,58.41
2022-09-11T20:09:07.963Z,59.30
2022-09-11T20:11:47.183Z,58.87
2022-09-11T20:14:20.179Z,59.19
2022-09-11T20:16:52.825Z,60.64
2022-09-11T20:19:27.046Z,59.17
2022-09-11T20:22:00.607Z,58.55
2022-09-11T20:24:33.622Z,60.20
2022-09-11T20:27:06.654Z,59.61
2022-09-11T20:29:40.261Z,59.16
2022-09-11T20:32:13.155Z,60.40
2022-09-11T20:34:47.151Z,59.74
2022-09-11T20:37:19.875Z,59.56
2022-09-11T20:39:52.789Z,62.08
2022-09-11T20:42:25.432Z,59.50
2022-09-11T20:45:00.463Z,59.96
2022-09-11T20:47:33.357Z,60.11
2022-09-11T20:50:09.369Z,60.91
2022-09-11T20:52:43.970Z,59.99
2022-09-11T20:55:16.783Z,61.47
2022-09-11T20:57:49.437Z,59.74
2022-09-11T21:00:22.230Z,58.90
2022-09-11T21:02:55.004Z,59.80
2022-09-11T21:05:28.976Z,60.61
2022-09-11T21:08:01.745Z,62.02
2022-09-11T21:10:37.193Z,59.19
2022-09-11T21:13:11.612Z,62.18
2022-09-11T21:15:44.943Z,60.90
2022-09-11T21:18:17.946Z,60.34
2022-09-11T21:20:55.566Z,60.45
2022-09-11T21:23:28.391Z,61.43
2022-09-11T21:26:01.110Z,61.06
2022-09-11T21:28:33.791Z,60.77
2022-09-11T21:31:08.185Z,61.89
2022-09-11T21:33:41.267Z,61.30
2022-09-11T21:36:15.681Z,60.58
2022-09-11T21:38:48.640Z,60.72
2022-09-11T21:41:21.244Z,63.00
2022-09-11T21:43:54.002Z,60.42
2022-09-11T21:46:26.789Z,61.57
2022-09-11T21:48:59.905Z,61.37
2022-09-11T21:51:34.085Z,62.71
2022-09-11T21:54:06.951Z,60.71
2022-09-11T21:56:39.647Z,60.93
2022-09-11T21:59:12.268Z,60.68
2022-09-11T22:01:45.020Z,61.16
2022-09-11T22:04:17.682Z,61.77
2022-09-11T22:06:51.993Z,62.96
2022-09-11T22:09:24.686Z,60.34
2022-09-11T22:11:59.850Z,62.22
2022-09-11T22:14:32.914Z,61.97
2022-09-11T22:17:05.888Z,62.10
2022-09-11T22:19:38.654Z,61.69
2022-09-11T22:22:13.186Z,62.38
2022-09-11T22:24:45.976Z,62.48
2022-09-11T22:27:18.813Z,61.95
2022-09-11T22:29:54.155Z,61.81
2022-09-11T22:32:27.121Z,61.53
2022-09-11T22:34:59.650Z,61.80
2022-09-11T22:37:33.635Z,60.86
2022-09-11T22:40:07.904Z,61.17
2022-09-11T22:42:40.643Z,61.98
2022-09-11T22:45:13.306Z,61.57
2022-09-11T22:47:46.061Z,61.63
2022-09-11T22:50:19.333Z,61.31
2022-09-11T22:52:53.593Z,61.85
2022-09-11T22:55:26.253Z,61.59
2022-09-11T22:57:58.883Z,61.05
2022-09-11T23:00:31.738Z,61.40
2022-09-11T23:03:04.748Z,61.40
2022-09-11T23:05:54.804Z,61.02
2022-09-11T23:08:29.700Z,61.94
2022-09-11T23:11:03.245Z,61.54
2022-09-11T23:13:36.156Z,62.08
2022-09-11T23:16:11.851Z,62.68
2022-09-11T23:18:44.957Z,61.60
2022-09-11T23:21:18.438Z,61.34
2022-09-11T23:23:54.632Z,61.41
2022-09-11T23:26:28.682Z,61.34
2022-09-11T23:29:01.621Z,61.31
2022-09-11T23:31:35.212Z,61.32
2022-09-11T23:34:08.971Z,61.60
2022-09-11T23:36:41.520Z,60.97
2022-09-11T23:39:15.645Z,63.63
2022-09-11T23:41:48.219Z,61.79
2022-09-11T23:44:21.074Z,61.84
2022-09-11T23:46:53.638Z,61.15
2022-09-11T23:49:26.288Z,61.64
2022-09-11T23:51:58.832Z,62.36
2022-09-11T23:54:32.873Z,62.00
2022-09-11T23:57:05.678Z,61.44
2022-09-11T23:59:39.427Z,62.97
